sensor_id;sensor_type;location;lat;lon;timestamp;P1;durP1;ratioP1;P2;durP2;ratioP2
21420;SDS011;10871;50.144;8.428;2023-01-28T00:00:29;2.95;;;2.50;;
21420;SDS011;10871;50.144;8.428;2023-01-28T00:02:55;3.88;;;3.13;;
21420;SDS011;10871;50.144;8.428;2023-01-28T00:05:21;4.90;;;3.47;;
21420;SDS011;10871;50.144;8.428;2023-01-28T00:07:49;4.15;;;3.00;;
21420;SDS011;10871;50.144;8.428;2023-01-28T00:10:16;3.78;;;3.00;;
21420;SDS011;10871;50.144;8.428;2023-01-28T00:12:43;6.45;;;2.92;;
21420;SDS011;10871;50.144;8.428;2023-01-28T00:15:10;4.05;;;2.70;;
21420;SDS011;10871;50.144;8.428;2023-01-28T00:17:37;3.13;;;2.83;;
21420;SDS011;10871;50.144;8.428;2023-01-28T00:20:03;4.47;;;2.50;;
21420;SDS011;10871;50.144;8.428;2023-01-28T00:22:30;4.38;;;2.90;;
21420;SDS011;10871;50.144;8.428;2023-01-28T00:24:57;2.80;;;2.55;;
21420;SDS011;10871;50.144;8.428;2023-01-28T00:27:23;4.30;;;3.20;;
21420;SDS011;10871;50.144;8.428;2023-01-28T00:29:50;3.28;;;2.70;;
21420;SDS011;10871;50.144;8.428;2023-01-28T00:32:16;3.20;;;2.90;;
21420;SDS011;10871;50.144;8.428;2023-01-28T00:34:42;5.18;;;3.50;;
21420;SDS011;10871;50.144;8.428;2023-01-28T00:37:09;4.05;;;3.53;;
21420;SDS011;10871;50.144;8.428;2023-01-28T00:39:36;3.80;;;3.22;;
21420;SDS011;10871;50.144;8.428;2023-01-28T00:42:02;4.07;;;2.75;;
21420;SDS011;10871;50.144;8.428;2023-01-28T00:44:29;4.22;;;3.10;;
21420;SDS011;10871;50.144;8.428;2023-01-28T00:46:55;3.75;;;3.08;;
21420;SDS011;10871;50.144;8.428;2023-01-28T00:49:21;3.45;;;2.92;;
21420;SDS011;10871;50.144;8.428;2023-01-28T00:51:48;2.80;;;2.50;;
21420;SDS011;10871;50.144;8.428;2023-01-28T00:54:14;4.18;;;2.58;;
21420;SDS011;10871;50.144;8.428;2023-01-28T00:56:41;3.75;;;3.03;;
21420;SDS011;10871;50.144;8.428;2023-01-28T00:59:07;3.00;;;2.70;;
21420;SDS011;10871;50.144;8.428;2023-01-28T01:01:33;4.78;;;3.08;;
21420;SDS011;10871;50.144;8.428;2023-01-28T01:04:00;3.15;;;2.85;;
21420;SDS011;10871;50.144;8.428;2023-01-28T01:06:33;3.50;;;2.95;;
21420;SDS011;10871;50.144;8.428;2023-01-28T01:09:01;3.92;;;2.70;;
21420;SDS011;10871;50.144;8.428;2023-01-28T01:11:27;2.80;;;2.50;;
21420;SDS011;10871;50.144;8.428;2023-01-28T01:13:54;4.43;;;2.67;;
21420;SDS011;10871;50.144;8.428;2023-01-28T01:16:23;3.88;;;2.50;;
21420;SDS011;10871;50.144;8.428;2023-01-28T01:18:51;4.00;;;2.88;;
21420;SDS011;10871;50.144;8.428;2023-01-28T01:21:18;3.75;;;2.72;;
21420;SDS011;10871;50.144;8.428;2023-01-28T01:23:45;4.07;;;2.53;;
21420;SDS011;10871;50.144;8.428;2023-01-28T01:26:12;3.10;;;2.67;;
21420;SDS011;10871;50.144;8.428;2023-01-28T01:28:39;2.80;;;2.40;;
21420;SDS011;10871;50.144;8.428;2023-01-28T01:31:06;3.63;;;3.03;;
21420;SDS011;10871;50.144;8.428;2023-01-28T01:33:33;3.58;;;2.88;;
21420;SDS011;10871;50.144;8.428;2023-01-28T01:36:00;3.35;;;2.85;;
21420;SDS011;10871;50.144;8.428;2023-01-28T01:38:27;3.53;;;2.80;;
21420;SDS011;10871;50.144;8.428;2023-01-28T01:40:57;3.83;;;3.10;;
21420;SDS011;10871;50.144;8.428;2023-01-28T01:43:43;3.90;;;2.83;;
21420;SDS011;10871;50.144;8.428;2023-01-28T01:46:11;3.65;;;2.58;;
21420;SDS011;10871;50.144;8.428;2023-01-28T01:48:37;3.15;;;2.75;;
21420;SDS011;10871;50.144;8.428;2023-01-28T01:51:11;3.67;;;2.92;;
21420;SDS011;10871;50.144;8.428;2023-01-28T01:53:40;4.45;;;3.10;;
21420;SDS011;10871;50.144;8.428;2023-01-28T01:56:08;3.70;;;3.22;;
21420;SDS011;10871;50.144;8.428;2023-01-28T01:58:36;3.08;;;2.78;;
21420;SDS011;10871;50.144;8.428;2023-01-28T02:01:03;4.20;;;2.60;;
21420;SDS011;10871;50.144;8.428;2023-01-28T02:03:36;4.07;;;2.85;;
21420;SDS011;10871;50.144;8.428;2023-01-28T02:06:03;5.40;;;3.30;;
21420;SDS011;10871;50.144;8.428;2023-01-28T02:08:30;3.80;;;2.80;;
21420;SDS011;10871;50.144;8.428;2023-01-28T02:10:58;4.00;;;2.80;;
21420;SDS011;10871;50.144;8.428;2023-01-28T02:13:27;3.05;;;2.75;;
21420;SDS011;10871;50.144;8.428;2023-01-28T02:15:58;4.47;;;2.58;;
21420;SDS011;10871;50.144;8.428;2023-01-28T02:18:25;3.40;;;3.00;;
21420;SDS011;10871;50.144;8.428;2023-01-28T02:20:59;4.10;;;2.72;;
21420;SDS011;10871;50.144;8.428;2023-01-28T02:26:18;4.43;;;2.58;;
21420;SDS011;10871;50.144;8.428;2023-01-28T02:29:01;3.05;;;2.53;;
21420;SDS011;10871;50.144;8.428;2023-01-28T02:31:33;3.08;;;2.70;;
21420;SDS011;10871;50.144;8.428;2023-01-28T02:36:59;2.88;;;2.60;;
21420;SDS011;10871;50.144;8.428;2023-01-28T02:39:34;3.53;;;2.42;;
21420;SDS011;10871;50.144;8.428;2023-01-28T02:42:03;4.07;;;2.30;;
21420;SDS011;10871;50.144;8.428;2023-01-28T02:44:31;3.75;;;2.42;;
21420;SDS011;10871;50.144;8.428;2023-01-28T02:46:59;4.40;;;2.40;;
21420;SDS011;10871;50.144;8.428;2023-01-28T02:49:49;2.85;;;2.55;;
21420;SDS011;10871;50.144;8.428;2023-01-28T03:02:58;2.55;;;2.05;;
21420;SDS011;10871;50.144;8.428;2023-01-28T03:05:36;2.45;;;1.83;;
21420;SDS011;10871;50.144;8.428;2023-01-28T03:08:03;2.63;;;1.92;;
21420;SDS011;10871;50.144;8.428;2023-01-28T03:10:54;2.15;;;1.95;;
21420;SDS011;10871;50.144;8.428;2023-01-28T03:13:40;2.53;;;1.88;;
21420;SDS011;10871;50.144;8.428;2023-01-28T03:16:26;2.00;;;1.58;;
21420;SDS011;10871;50.144;8.428;2023-01-28T03:19:12;2.17;;;1.80;;
21420;SDS011;10871;50.144;8.428;2023-01-28T03:21:58;1.88;;;1.67;;
21420;SDS011;10871;50.144;8.428;2023-01-28T03:24:47;2.05;;;1.83;;
21420;SDS011;10871;50.144;8.428;2023-01-28T03:33:33;1.95;;;1.80;;
21420;SDS011;10871;50.144;8.428;2023-01-28T03:36:19;2.10;;;1.90;;
21420;SDS011;10871;50.144;8.428;2023-01-28T03:39:05;2.10;;;1.90;;
21420;SDS011;10871;50.144;8.428;2023-01-28T03:41:32;2.22;;;2.03;;
21420;SDS011;10871;50.144;8.428;2023-01-28T03:43:58;2.60;;;2.20;;
21420;SDS011;10871;50.144;8.428;2023-01-28T03:46:45;3.00;;;2.22;;
21420;SDS011;10871;50.144;8.428;2023-01-28T03:49:16;2.45;;;2.25;;
21420;SDS011;10871;50.144;8.428;2023-01-28T03:51:43;2.70;;;2.42;;
21420;SDS011;10871;50.144;8.428;2023-01-28T03:54:11;3.17;;;2.22;;
21420;SDS011;10871;50.144;8.428;2023-01-28T03:56:38;2.50;;;2.20;;
21420;SDS011;10871;50.144;8.428;2023-01-28T03:59:06;2.95;;;1.90;;
21420;SDS011;10871;50.144;8.428;2023-01-28T04:01:33;2.60;;;1.92;;
21420;SDS011;10871;50.144;8.428;2023-01-28T04:03:59;3.38;;;2.10;;
21420;SDS011;10871;50.144;8.428;2023-01-28T04:06:26;3.75;;;2.35;;
21420;SDS011;10871;50.144;8.428;2023-01-28T04:09:23;2.33;;;2.13;;
21420;SDS011;10871;50.144;8.428;2023-01-28T04:11:56;2.50;;;1.95;;
21420;SDS011;10871;50.144;8.428;2023-01-28T04:14:28;2.38;;;2.10;;
21420;SDS011;10871;50.144;8.428;2023-01-28T04:17:12;2.38;;;2.00;;
21420;SDS011;10871;50.144;8.428;2023-01-28T04:19:38;4.03;;;2.10;;
21420;SDS011;10871;50.144;8.428;2023-01-28T04:22:07;4.32;;;1.92;;
21420;SDS011;10871;50.144;8.428;2023-01-28T04:24:35;3.03;;;2.00;;
21420;SDS011;10871;50.144;8.428;2023-01-28T04:27:01;2.20;;;2.00;;
21420;SDS011;10871;50.144;8.428;2023-01-28T04:29:28;1.92;;;1.80;;
21420;SDS011;10871;50.144;8.428;2023-01-28T04:31:59;2.30;;;1.67;;
21420;SDS011;10871;50.144;8.428;2023-01-28T04:34:37;2.58;;;1.65;;
21420;SDS011;10871;50.144;8.428;2023-01-28T04:37:32;2.05;;;1.88;;
21420;SDS011;10871;50.144;8.428;2023-01-28T04:40:23;3.35;;;2.20;;
21420;SDS011;10871;50.144;8.428;2023-01-28T04:43:01;3.58;;;1.92;;
21420;SDS011;10871;50.144;8.428;2023-01-28T04:48:29;2.35;;;1.83;;
21420;SDS011;10871;50.144;8.428;2023-01-28T04:51:22;2.17;;;1.67;;
21420;SDS011;10871;50.144;8.428;2023-01-28T04:54:02;2.17;;;1.90;;
21420;SDS011;10871;50.144;8.428;2023-01-28T04:56:30;1.73;;;1.60;;
21420;SDS011;10871;50.144;8.428;2023-01-28T04:58:58;2.10;;;1.75;;
21420;SDS011;10871;50.144;8.428;2023-01-28T05:01:24;2.42;;;1.60;;
21420;SDS011;10871;50.144;8.428;2023-01-28T05:03:51;2.85;;;1.90;;
21420;SDS011;10871;50.144;8.428;2023-01-28T05:06:24;2.08;;;1.88;;
21420;SDS011;10871;50.144;8.428;2023-01-28T05:08:55;2.38;;;2.00;;
21420;SDS011;10871;50.144;8.428;2023-01-28T05:11:22;2.15;;;1.95;;
21420;SDS011;10871;50.144;8.428;2023-01-28T05:13:53;2.30;;;2.10;;
21420;SDS011;10871;50.144;8.428;2023-01-28T05:16:20;2.30;;;2.10;;
21420;SDS011;10871;50.144;8.428;2023-01-28T05:18:46;2.67;;;2.05;;
21420;SDS011;10871;50.144;8.428;2023-01-28T05:21:15;2.50;;;1.98;;
21420;SDS011;10871;50.144;8.428;2023-01-28T05:23:42;2.38;;;2.00;;
21420;SDS011;10871;50.144;8.428;2023-01-28T05:26:09;2.20;;;2.00;;
21420;SDS011;10871;50.144;8.428;2023-01-28T05:28:35;2.40;;;1.90;;
21420;SDS011;10871;50.144;8.428;2023-01-28T05:31:05;2.95;;;2.20;;
21420;SDS011;10871;50.144;8.428;2023-01-28T05:33:32;2.60;;;2.22;;
21420;SDS011;10871;50.144;8.428;2023-01-28T05:35:59;2.25;;;2.00;;
21420;SDS011;10871;50.144;8.428;2023-01-28T05:38:26;2.20;;;2.00;;
21420;SDS011;10871;50.144;8.428;2023-01-28T05:40:53;2.47;;;2.28;;
21420;SDS011;10871;50.144;8.428;2023-01-28T05:43:19;2.75;;;2.10;;
21420;SDS011;10871;50.144;8.428;2023-01-28T05:45:59;4.35;;;2.60;;
21420;SDS011;10871;50.144;8.428;2023-01-28T05:48:31;3.63;;;2.50;;
21420;SDS011;10871;50.144;8.428;2023-01-28T05:51:11;3.13;;;2.60;;
21420;SDS011;10871;50.144;8.428;2023-01-28T05:53:43;3.38;;;2.55;;
21420;SDS011;10871;50.144;8.428;2023-01-28T05:56:09;3.88;;;2.75;;
21420;SDS011;10871;50.144;8.428;2023-01-28T05:58:37;7.47;;;4.07;;
21420;SDS011;10871;50.144;8.428;2023-01-28T06:01:03;4.50;;;3.00;;
21420;SDS011;10871;50.144;8.428;2023-01-28T06:03:38;7.13;;;3.50;;
21420;SDS011;10871;50.144;8.428;2023-01-28T06:06:05;5.38;;;3.28;;
21420;SDS011;10871;50.144;8.428;2023-01-28T06:08:31;6.38;;;3.13;;
21420;SDS011;10871;50.144;8.428;2023-01-28T06:10:58;3.55;;;2.67;;
21420;SDS011;10871;50.144;8.428;2023-01-28T06:13:25;3.45;;;2.85;;
21420;SDS011;10871;50.144;8.428;2023-01-28T06:16:14;3.30;;;2.90;;
21420;SDS011;10871;50.144;8.428;2023-01-28T06:18:58;4.55;;;2.95;;
21420;SDS011;10871;50.144;8.428;2023-01-28T06:21:24;4.00;;;2.60;;
21420;SDS011;10871;50.144;8.428;2023-01-28T06:23:50;2.75;;;2.42;;
21420;SDS011;10871;50.144;8.428;2023-01-28T06:26:17;3.42;;;2.80;;
21420;SDS011;10871;50.144;8.428;2023-01-28T06:28:44;3.13;;;2.70;;
21420;SDS011;10871;50.144;8.428;2023-01-28T06:31:10;4.65;;;3.38;;
21420;SDS011;10871;50.144;8.428;2023-01-28T06:33:37;3.00;;;2.70;;
21420;SDS011;10871;50.144;8.428;2023-01-28T06:36:03;3.30;;;3.00;;
21420;SDS011;10871;50.144;8.428;2023-01-28T06:38:31;3.90;;;2.85;;
21420;SDS011;10871;50.144;8.428;2023-01-28T06:40:58;3.50;;;2.83;;
21420;SDS011;10871;50.144;8.428;2023-01-28T06:43:24;3.38;;;2.92;;
21420;SDS011;10871;50.144;8.428;2023-01-28T06:45:53;3.50;;;2.78;;
21420;SDS011;10871;50.144;8.428;2023-01-28T06:48:20;3.88;;;3.00;;
21420;SDS011;10871;50.144;8.428;2023-01-28T06:50:46;3.85;;;2.85;;
21420;SDS011;10871;50.144;8.428;2023-01-28T06:53:13;4.15;;;3.28;;
21420;SDS011;10871;50.144;8.428;2023-01-28T06:55:40;3.38;;;3.00;;
21420;SDS011;10871;50.144;8.428;2023-01-28T06:58:06;6.07;;;3.00;;
21420;SDS011;10871;50.144;8.428;2023-01-28T07:00:32;3.75;;;3.00;;
21420;SDS011;10871;50.144;8.428;2023-01-28T07:02:59;2.90;;;2.60;;
21420;SDS011;10871;50.144;8.428;2023-01-28T07:05:25;4.65;;;2.80;;
21420;SDS011;10871;50.144;8.428;2023-01-28T07:07:51;3.75;;;2.90;;
21420;SDS011;10871;50.144;8.428;2023-01-28T07:10:18;5.15;;;2.92;;
21420;SDS011;10871;50.144;8.428;2023-01-28T07:12:44;3.83;;;2.72;;
21420;SDS011;10871;50.144;8.428;2023-01-28T07:15:11;3.47;;;2.55;;
21420;SDS011;10871;50.144;8.428;2023-01-28T07:17:38;3.42;;;2.78;;
21420;SDS011;10871;50.144;8.428;2023-01-28T07:20:06;5.35;;;3.38;;
21420;SDS011;10871;50.144;8.428;2023-01-28T07:22:32;4.32;;;2.60;;
21420;SDS011;10871;50.144;8.428;2023-01-28T07:24:58;3.90;;;2.75;;
21420;SDS011;10871;50.144;8.428;2023-01-28T07:27:26;3.17;;;2.88;;
21420;SDS011;10871;50.144;8.428;2023-01-28T07:29:52;5.35;;;3.17;;
21420;SDS011;10871;50.144;8.428;2023-01-28T07:32:18;4.00;;;3.30;;
21420;SDS011;10871;50.144;8.428;2023-01-28T07:34:45;4.43;;;3.20;;
21420;SDS011;10871;50.144;8.428;2023-01-28T07:37:11;5.38;;;3.22;;
21420;SDS011;10871;50.144;8.428;2023-01-28T07:39:37;5.07;;;3.50;;
21420;SDS011;10871;50.144;8.428;2023-01-28T07:42:04;5.55;;;3.47;;
21420;SDS011;10871;50.144;8.428;2023-01-28T07:44:34;4.22;;;2.97;;
21420;SDS011;10871;50.144;8.428;2023-01-28T07:47:02;3.03;;;2.67;;
21420;SDS011;10871;50.144;8.428;2023-01-28T07:49:29;3.55;;;2.60;;
21420;SDS011;10871;50.144;8.428;2023-01-28T07:51:55;2.42;;;2.22;;
21420;SDS011;10871;50.144;8.428;2023-01-28T07:54:21;2.75;;;2.40;;
21420;SDS011;10871;50.144;8.428;2023-01-28T07:56:48;2.50;;;2.17;;
21420;SDS011;10871;50.144;8.428;2023-01-28T07:59:14;4.22;;;2.50;;
21420;SDS011;10871;50.144;8.428;2023-01-28T08:01:40;3.15;;;2.45;;
21420;SDS011;10871;50.144;8.428;2023-01-28T08:04:07;3.55;;;2.60;;
21420;SDS011;10871;50.144;8.428;2023-01-28T08:06:33;3.20;;;2.40;;
21420;SDS011;10871;50.144;8.428;2023-01-28T08:09:06;3.33;;;2.45;;
21420;SDS011;10871;50.144;8.428;2023-01-28T08:11:33;2.67;;;2.03;;
21420;SDS011;10871;50.144;8.428;2023-01-28T08:14:00;4.57;;;2.50;;
21420;SDS011;10871;50.144;8.428;2023-01-28T08:16:27;4.22;;;2.50;;
21420;SDS011;10871;50.144;8.428;2023-01-28T08:18:54;3.33;;;2.33;;
21420;SDS011;10871;50.144;8.428;2023-01-28T08:21:20;3.75;;;2.38;;
21420;SDS011;10871;50.144;8.428;2023-01-28T08:23:47;2.78;;;2.40;;
21420;SDS011;10871;50.144;8.428;2023-01-28T08:26:13;4.82;;;2.70;;
21420;SDS011;10871;50.144;8.428;2023-01-28T08:28:39;3.75;;;2.75;;
21420;SDS011;10871;50.144;8.428;2023-01-28T08:31:06;6.47;;;2.90;;
21420;SDS011;10871;50.144;8.428;2023-01-28T08:33:32;4.07;;;2.65;;
21420;SDS011;10871;50.144;8.428;2023-01-28T08:36:01;3.25;;;2.90;;
21420;SDS011;10871;50.144;8.428;2023-01-28T08:38:27;4.18;;;2.42;;
21420;SDS011;10871;50.144;8.428;2023-01-28T08:40:54;2.10;;;1.90;;
21420;SDS011;10871;50.144;8.428;2023-01-28T08:43:21;4.43;;;2.60;;
21420;SDS011;10871;50.144;8.428;2023-01-28T08:45:47;3.63;;;2.72;;
21420;SDS011;10871;50.144;8.428;2023-01-28T08:48:14;2.80;;;2.58;;
21420;SDS011;10871;50.144;8.428;2023-01-28T08:50:41;3.35;;;2.53;;
21420;SDS011;10871;50.144;8.428;2023-01-28T08:53:12;3.40;;;2.50;;
21420;SDS011;10871;50.144;8.428;2023-01-28T08:55:38;3.40;;;2.40;;
21420;SDS011;10871;50.144;8.428;2023-01-28T08:58:05;3.53;;;2.50;;
21420;SDS011;10871;50.144;8.428;2023-01-28T09:00:32;2.78;;;2.45;;
21420;SDS011;10871;50.144;8.428;2023-01-28T09:02:59;5.55;;;2.67;;
21420;SDS011;10871;50.144;8.428;2023-01-28T09:05:25;4.53;;;3.08;;
21420;SDS011;10871;50.144;8.428;2023-01-28T09:07:51;3.92;;;3.10;;
21420;SDS011;10871;50.144;8.428;2023-01-28T09:10:18;3.53;;;2.72;;
21420;SDS011;10871;50.144;8.428;2023-01-28T09:12:47;4.65;;;2.30;;
21420;SDS011;10871;50.144;8.428;2023-01-28T09:15:14;2.80;;;2.30;;
21420;SDS011;10871;50.144;8.428;2023-01-28T09:17:40;3.78;;;2.58;;
21420;SDS011;10871;50.144;8.428;2023-01-28T09:20:06;2.85;;;2.53;;
21420;SDS011;10871;50.144;8.428;2023-01-28T09:22:33;2.92;;;2.20;;
21420;SDS011;10871;50.144;8.428;2023-01-28T09:25:00;2.78;;;2.33;;
21420;SDS011;10871;50.144;8.428;2023-01-28T09:27:26;3.78;;;2.42;;
21420;SDS011;10871;50.144;8.428;2023-01-28T09:29:53;3.40;;;2.53;;
21420;SDS011;10871;50.144;8.428;2023-01-28T09:32:22;2.78;;;2.55;;
21420;SDS011;10871;50.144;8.428;2023-01-28T09:34:50;3.45;;;2.33;;
21420;SDS011;10871;50.144;8.428;2023-01-28T09:37:27;3.17;;;2.42;;
21420;SDS011;10871;50.144;8.428;2023-01-28T09:40:00;3.00;;;2.60;;
21420;SDS011;10871;50.144;8.428;2023-01-28T09:42:31;2.85;;;2.33;;
21420;SDS011;10871;50.144;8.428;2023-01-28T09:45:12;2.60;;;2.20;;
21420;SDS011;10871;50.144;8.428;2023-01-28T09:47:49;2.60;;;2.08;;
21420;SDS011;10871;50.144;8.428;2023-01-28T09:50:38;3.35;;;2.20;;
21420;SDS011;10871;50.144;8.428;2023-01-28T09:53:20;2.83;;;2.45;;
21420;SDS011;10871;50.144;8.428;2023-01-28T09:55:54;4.13;;;2.53;;
21420;SDS011;10871;50.144;8.428;2023-01-28T09:58:22;2.95;;;2.55;;
21420;SDS011;10871;50.144;8.428;2023-01-28T10:17:22;3.28;;;2.30;;
21420;SDS011;10871;50.144;8.428;2023-01-28T10:29:03;2.40;;;2.05;;
21420;SDS011;10871;50.144;8.428;2023-01-28T10:40:02;3.30;;;2.20;;
21420;SDS011;10871;50.144;8.428;2023-01-28T10:50:31;2.20;;;2.00;;
21420;SDS011;10871;50.144;8.428;2023-01-28T10:53:01;3.42;;;2.10;;
21420;SDS011;10871;50.144;8.428;2023-01-28T10:55:44;2.35;;;2.15;;
21420;SDS011;10871;50.144;8.428;2023-01-28T10:58:17;2.60;;;1.98;;
21420;SDS011;10871;50.144;8.428;2023-01-28T11:00:43;2.83;;;2.03;;
21420;SDS011;10871;50.144;8.428;2023-01-28T11:03:17;3.80;;;2.47;;
21420;SDS011;10871;50.144;8.428;2023-01-28T11:05:50;2.35;;;2.15;;
21420;SDS011;10871;50.144;8.428;2023-01-28T11:08:17;3.75;;;2.22;;
21420;SDS011;10871;50.144;8.428;2023-01-28T11:10:45;3.97;;;2.20;;
21420;SDS011;10871;50.144;8.428;2023-01-28T11:13:15;3.08;;;2.28;;
21420;SDS011;10871;50.144;8.428;2023-01-28T11:15:45;3.20;;;2.10;;
21420;SDS011;10871;50.144;8.428;2023-01-28T11:18:15;5.05;;;2.47;;
21420;SDS011;10871;50.144;8.428;2023-01-28T11:20:42;2.28;;;2.08;;
21420;SDS011;10871;50.144;8.428;2023-01-28T11:23:18;2.88;;;2.25;;
21420;SDS011;10871;50.144;8.428;2023-01-28T11:25:46;3.08;;;2.30;;
21420;SDS011;10871;50.144;8.428;2023-01-28T11:28:16;3.03;;;2.45;;
21420;SDS011;10871;50.144;8.428;2023-01-28T11:30:43;2.15;;;1.88;;
21420;SDS011;10871;50.144;8.428;2023-01-28T11:33:17;2.40;;;1.90;;
21420;SDS011;10871;50.144;8.428;2023-01-28T11:38:20;2.13;;;1.90;;
21420;SDS011;10871;50.144;8.428;2023-01-28T11:40:54;2.58;;;2.10;;
21420;SDS011;10871;50.144;8.428;2023-01-28T11:51:35;2.15;;;1.95;;
21420;SDS011;10871;50.144;8.428;2023-01-28T12:13:11;2.55;;;1.90;;
21420;SDS011;10871;50.144;8.428;2023-01-28T12:21:03;3.33;;;2.47;;
21420;SDS011;10871;50.144;8.428;2023-01-28T12:26:19;2.00;;;1.80;;
21420;SDS011;10871;50.144;8.428;2023-01-28T12:36:48;4.13;;;2.65;;
21420;SDS011;10871;50.144;8.428;2023-01-28T12:42:14;3.53;;;2.30;;
21420;SDS011;10871;50.144;8.428;2023-01-28T12:44:58;2.92;;;1.92;;
21420;SDS011;10871;50.144;8.428;2023-01-28T12:47:36;8.55;;;2.35;;
21420;SDS011;10871;50.144;8.428;2023-01-28T12:50:24;3.13;;;2.47;;
21420;SDS011;10871;50.144;8.428;2023-01-28T12:53:02;3.25;;;2.28;;
21420;SDS011;10871;50.144;8.428;2023-01-28T12:55:45;3.75;;;2.40;;
21420;SDS011;10871;50.144;8.428;2023-01-28T12:58:16;3.47;;;2.10;;
21420;SDS011;10871;50.144;8.428;2023-01-28T13:00:55;2.92;;;1.70;;
21420;SDS011;10871;50.144;8.428;2023-01-28T13:06:37;2.90;;;1.88;;
21420;SDS011;10871;50.144;8.428;2023-01-28T13:09:25;2.00;;;1.80;;
21420;SDS011;10871;50.144;8.428;2023-01-28T13:12:00;2.67;;;1.90;;
21420;SDS011;10871;50.144;8.428;2023-01-28T13:14:29;2.47;;;1.80;;
21420;SDS011;10871;50.144;8.428;2023-01-28T13:17:23;2.53;;;1.77;;
21420;SDS011;10871;50.144;8.428;2023-01-28T13:19:50;3.55;;;2.40;;
21420;SDS011;10871;50.144;8.428;2023-01-28T13:27:59;3.45;;;2.20;;
21420;SDS011;10871;50.144;8.428;2023-01-28T13:30:46;2.53;;;2.20;;
21420;SDS011;10871;50.144;8.428;2023-01-28T13:33:27;2.58;;;2.35;;
21420;SDS011;10871;50.144;8.428;2023-01-28T13:36:00;2.97;;;2.00;;
21420;SDS011;10871;50.144;8.428;2023-01-28T13:38:34;2.28;;;1.92;;
21420;SDS011;10871;50.144;8.428;2023-01-28T13:41:01;3.28;;;2.15;;
21420;SDS011;10871;50.144;8.428;2023-01-28T13:43:39;4.80;;;2.53;;
21420;SDS011;10871;50.144;8.428;2023-01-28T13:46:14;3.38;;;2.15;;
21420;SDS011;10871;50.144;8.428;2023-01-28T13:48:52;2.25;;;2.05;;
21420;SDS011;10871;50.144;8.428;2023-01-28T13:51:37;3.08;;;2.33;;
21420;SDS011;10871;50.144;8.428;2023-01-28T13:54:10;3.47;;;2.28;;
21420;SDS011;10871;50.144;8.428;2023-01-28T13:56:54;3.45;;;2.60;;
21420;SDS011;10871;50.144;8.428;2023-01-28T14:10:47;4.63;;;2.40;;
21420;SDS011;10871;50.144;8.428;2023-01-28T14:18:59;1.92;;;1.77;;
21420;SDS011;10871;50.144;8.428;2023-01-28T14:21:32;2.28;;;2.00;;
21420;SDS011;10871;50.144;8.428;2023-01-28T14:24:13;4.32;;;2.60;;
21420;SDS011;10871;50.144;8.428;2023-01-28T14:27:00;5.63;;;2.88;;
21420;SDS011;10871;50.144;8.428;2023-01-28T14:32:32;10.38;;;5.63;;
21420;SDS011;10871;50.144;8.428;2023-01-28T14:35:06;5.78;;;4.35;;
21420;SDS011;10871;50.144;8.428;2023-01-28T14:37:36;4.43;;;2.60;;
21420;SDS011;10871;50.144;8.428;2023-01-28T14:40:12;3.75;;;2.50;;
21420;SDS011;10871;50.144;8.428;2023-01-28T14:42:55;4.18;;;2.47;;
21420;SDS011;10871;50.144;8.428;2023-01-28T14:46:29;4.45;;;3.08;;
21420;SDS011;10871;50.144;8.428;2023-01-28T14:53:25;3.95;;;2.10;;
21420;SDS011;10871;50.144;8.428;2023-01-28T14:56:24;5.88;;;3.22;;
21420;SDS011;10871;50.144;8.428;2023-01-28T15:12:33;3.90;;;2.13;;
21420;SDS011;10871;50.144;8.428;2023-01-28T15:15:20;5.45;;;3.22;;
21420;SDS011;10871;50.144;8.428;2023-01-28T15:17:59;5.13;;;2.88;;
21420;SDS011;10871;50.144;8.428;2023-01-28T15:24:51;3.22;;;2.58;;
21420;SDS011;10871;50.144;8.428;2023-01-28T15:34:31;6.18;;;2.90;;
21420;SDS011;10871;50.144;8.428;2023-01-28T15:44:27;8.20;;;3.85;;
21420;SDS011;10871;50.144;8.428;2023-01-28T15:47:22;4.85;;;3.10;;
21420;SDS011;10871;50.144;8.428;2023-01-28T15:50:04;5.10;;;2.80;;
21420;SDS011;10871;50.144;8.428;2023-01-28T15:52:35;3.40;;;2.53;;
21420;SDS011;10871;50.144;8.428;2023-01-28T15:55:04;5.85;;;2.72;;
21420;SDS011;10871;50.144;8.428;2023-01-28T15:57:34;3.17;;;2.88;;
21420;SDS011;10871;50.144;8.428;2023-01-28T16:00:11;6.10;;;3.55;;
21420;SDS011;10871;50.144;8.428;2023-01-28T16:02:43;5.95;;;3.63;;
21420;SDS011;10871;50.144;8.428;2023-01-28T16:05:34;5.30;;;3.42;;
21420;SDS011;10871;50.144;8.428;2023-01-28T16:08:11;4.18;;;3.33;;
21420;SDS011;10871;50.144;8.428;2023-01-28T16:10:50;3.60;;;2.95;;
21420;SDS011;10871;50.144;8.428;2023-01-28T16:13:21;5.95;;;3.17;;
21420;SDS011;10871;50.144;8.428;2023-01-28T16:15:56;6.43;;;3.22;;
21420;SDS011;10871;50.144;8.428;2023-01-28T16:21:20;4.32;;;2.80;;
21420;SDS011;10871;50.144;8.428;2023-01-28T16:23:53;4.30;;;3.05;;
21420;SDS011;10871;50.144;8.428;2023-01-28T16:26:32;8.32;;;3.65;;
21420;SDS011;10871;50.144;8.428;2023-01-28T16:29:13;8.82;;;4.18;;
21420;SDS011;10871;50.144;8.428;2023-01-28T16:31:42;6.07;;;2.70;;
21420;SDS011;10871;50.144;8.428;2023-01-28T16:34:11;5.75;;;3.42;;
21420;SDS011;10871;50.144;8.428;2023-01-28T16:36:46;6.22;;;3.50;;
21420;SDS011;10871;50.144;8.428;2023-01-28T16:39:19;5.80;;;3.85;;
21420;SDS011;10871;50.144;8.428;2023-01-28T16:41:48;5.47;;;3.42;;
21420;SDS011;10871;50.144;8.428;2023-01-28T16:44:21;5.85;;;4.10;;
21420;SDS011;10871;50.144;8.428;2023-01-28T16:46:53;8.50;;;4.47;;
21420;SDS011;10871;50.144;8.428;2023-01-28T16:51:59;8.60;;;6.07;;
21420;SDS011;10871;50.144;8.428;2023-01-28T16:54:31;11.73;;;6.80;;
21420;SDS011;10871;50.144;8.428;2023-01-28T16:57:04;14.60;;;8.60;;
21420;SDS011;10871;50.144;8.428;2023-01-28T16:59:44;15.85;;;9.43;;
21420;SDS011;10871;50.144;8.428;2023-01-28T17:02:16;17.65;;;9.68;;
21420;SDS011;10871;50.144;8.428;2023-01-28T17:04:57;15.98;;;8.55;;
21420;SDS011;10871;50.144;8.428;2023-01-28T17:07:31;11.05;;;6.75;;
21420;SDS011;10871;50.144;8.428;2023-01-28T17:09:59;10.35;;;6.10;;
21420;SDS011;10871;50.144;8.428;2023-01-28T17:12:29;10.02;;;6.35;;
21420;SDS011;10871;50.144;8.428;2023-01-28T17:14:55;8.98;;;6.03;;
21420;SDS011;10871;50.144;8.428;2023-01-28T17:17:22;12.07;;;8.40;;
21420;SDS011;10871;50.144;8.428;2023-01-28T17:19:48;14.00;;;8.52;;
21420;SDS011;10871;50.144;8.428;2023-01-28T17:22:14;12.15;;;8.00;;
21420;SDS011;10871;50.144;8.428;2023-01-28T17:24:41;12.65;;;7.40;;
21420;SDS011;10871;50.144;8.428;2023-01-28T17:27:07;10.38;;;7.72;;
21420;SDS011;10871;50.144;8.428;2023-01-28T17:29:34;11.10;;;8.27;;
21420;SDS011;10871;50.144;8.428;2023-01-28T17:32:01;9.68;;;8.07;;
21420;SDS011;10871;50.144;8.428;2023-01-28T17:34:27;10.07;;;7.45;;
21420;SDS011;10871;50.144;8.428;2023-01-28T17:36:53;10.32;;;6.85;;
21420;SDS011;10871;50.144;8.428;2023-01-28T17:39:20;13.25;;;7.35;;
21420;SDS011;10871;50.144;8.428;2023-01-28T17:41:46;9.80;;;7.75;;
21420;SDS011;10871;50.144;8.428;2023-01-28T17:44:12;8.70;;;6.28;;
21420;SDS011;10871;50.144;8.428;2023-01-28T17:46:42;8.77;;;6.40;;
21420;SDS011;10871;50.144;8.428;2023-01-28T17:49:08;10.02;;;6.40;;
21420;SDS011;10871;50.144;8.428;2023-01-28T17:51:34;11.73;;;7.35;;
21420;SDS011;10871;50.144;8.428;2023-01-28T17:54:01;13.52;;;8.15;;
21420;SDS011;10871;50.144;8.428;2023-01-28T17:56:28;13.45;;;8.05;;
21420;SDS011;10871;50.144;8.428;2023-01-28T17:58:55;11.93;;;7.65;;
21420;SDS011;10871;50.144;8.428;2023-01-28T18:01:22;12.85;;;7.50;;
21420;SDS011;10871;50.144;8.428;2023-01-28T18:03:49;14.15;;;8.93;;
21420;SDS011;10871;50.144;8.428;2023-01-28T18:06:15;11.80;;;8.40;;
21420;SDS011;10871;50.144;8.428;2023-01-28T18:08:42;13.63;;;8.32;;
21420;SDS011;10871;50.144;8.428;2023-01-28T18:11:09;14.20;;;8.10;;
21420;SDS011;10871;50.144;8.428;2023-01-28T18:13:35;12.27;;;7.75;;
21420;SDS011;10871;50.144;8.428;2023-01-28T18:16:03;11.45;;;6.95;;